« Back
NWS Peachtree City, Ga » Text Product » MCN Terminal Aerodrome Forecast


Printer-friendly Version
Current Version              Previous Versions:   1  2  3  4  5  6  7  8  9  

Terminal Aerodrome Forecast

318
FTUS42 KFFC 252339
TAFMCN
TAF
KMCN 252339Z 2600/2624 33005KT P6SM -RA BKN045 BKN080
     FM260400 32008KT P6SM -RA OVC030
     FM260700 31008KT 6SM -RA BR OVC020
     FM261200 30008KT 6SM -SHRA BR OVC025
     FM261500 30008KT P6SM SCT035
     FM262100 26007KT P6SM SCT250=

USA.gov is the U.S. government's official web portal to all federal, state and local government web resources and services.